createdAt,value
2018-01-17T00:00:05.977Z,0.90
2018-01-17T00:04:49.072Z,0.90
2018-01-17T00:09:32.372Z,0.80
2018-01-17T00:14:16.504Z,0.80
2018-01-17T00:18:59.833Z,0.70
2018-01-17T00:23:43.141Z,0.70
2018-01-17T00:28:26.466Z,0.60
2018-01-17T00:33:09.753Z,0.60
2018-01-17T00:37:53.067Z,0.60
2018-01-17T00:42:36.366Z,0.50
2018-01-17T00:47:20.434Z,0.70
2018-01-17T00:52:04.567Z,0.60
2018-01-17T00:56:47.892Z,0.60
2018-01-17T01:01:31.182Z,0.60
2018-01-17T01:06:15.267Z,0.90
2018-01-17T01:10:58.582Z,0.80
2018-01-17T01:15:42.652Z,0.90
2018-01-17T01:20:25.957Z,0.90
2018-01-17T01:25:10.095Z,0.80
2018-01-17T01:29:53.365Z,0.80
2018-01-17T01:34:37.447Z,0.80
2018-01-17T01:39:20.766Z,0.80
2018-01-17T01:44:04.096Z,0.60
2018-01-17T01:48:59.977Z,0.60
2018-01-17T01:53:43.320Z,0.60
2018-01-17T01:58:26.621Z,0.60
2018-01-17T02:03:10.723Z,0.60
2018-01-17T02:07:54.051Z,0.60
2018-01-17T02:12:37.365Z,0.50
2018-01-17T02:17:20.689Z,0.50
2018-01-17T02:22:04.801Z,0.40
2018-01-17T02:26:48.124Z,0.50
2018-01-17T02:31:31.421Z,0.30
2018-01-17T02:36:14.755Z,0.30
2018-01-17T02:40:58.867Z,0.30
2018-01-17T02:45:42.203Z,0.20
2018-01-17T02:50:25.511Z,0.30
2018-01-17T02:55:09.610Z,0.20
2018-01-17T02:59:52.920Z,0.20
2018-01-17T03:04:36.237Z,0.30
2018-01-17T03:09:20.345Z,0.30
2018-01-17T03:14:03.676Z,0.30
2018-01-17T03:18:47.016Z,0.30
2018-01-17T03:23:30.326Z,0.20
2018-01-17T03:28:14.365Z,0.20
2018-01-17T03:32:58.456Z,0.30
2018-01-17T03:37:41.781Z,0.30
2018-01-17T03:42:25.121Z,0.30
2018-01-17T03:47:09.218Z,0.20
2018-01-17T03:51:52.486Z,0.20
2018-01-17T03:56:35.794Z,0.20
2018-01-17T04:01:19.117Z,0.10
2018-01-17T04:06:02.416Z,0.10
2018-01-17T04:10:46.547Z,0.10
2018-01-17T04:15:29.826Z,0.10
2018-01-17T04:20:13.940Z,0.10
2018-01-17T04:24:57.273Z,0.00
2018-01-17T04:29:40.583Z,0.10
2018-01-17T04:34:24.649Z,0.00
2018-01-17T04:39:08.023Z,0.00
2018-01-17T04:43:51.308Z,0.00
2018-01-17T04:48:34.631Z,0.00
2018-01-17T04:53:18.714Z,0.10
2018-01-17T04:58:02.763Z,0.10
2018-01-17T05:02:46.107Z,0.10
2018-01-17T05:07:29.446Z,0.20
2018-01-17T05:12:12.777Z,0.30
2018-01-17T05:16:56.879Z,0.30
2018-01-17T05:21:40.158Z,0.30
2018-01-17T05:26:23.512Z,0.20
2018-01-17T05:31:07.598Z,0.20
2018-01-17T05:35:50.991Z,0.20
2018-01-17T05:40:34.329Z,0.30
2018-01-17T05:45:17.658Z,0.30
2018-01-17T05:50:00.967Z,0.30
2018-01-17T05:54:44.259Z,0.30
2018-01-17T05:59:28.338Z,0.50
2018-01-17T06:04:12.757Z,0.50
2018-01-17T06:08:57.001Z,0.50
2018-01-17T06:13:40.306Z,0.50
2018-01-17T06:18:23.614Z,0.50
2018-01-17T06:23:06.936Z,0.70
2018-01-17T06:27:50.265Z,0.70
2018-01-17T06:32:33.579Z,0.90
2018-01-17T06:37:16.904Z,0.90
2018-01-17T06:42:00.949Z,0.90
2018-01-17T06:46:44.270Z,0.90
2018-01-17T06:51:27.586Z,1.00
2018-01-17T06:56:10.890Z,1.10
2018-01-17T07:00:54.218Z,1.10
2018-01-17T07:05:38.340Z,1.20
2018-01-17T07:10:21.645Z,1.20
2018-01-17T07:15:04.960Z,1.30
2018-01-17T07:19:48.287Z,1.30
2018-01-17T07:24:32.365Z,1.00
2018-01-17T07:29:15.714Z,1.00
2018-01-17T07:33:59.026Z,0.90
2018-01-17T07:38:43.101Z,0.80
2018-01-17T07:43:26.427Z,0.80
2018-01-17T07:48:09.744Z,0.90
2018-01-17T07:52:53.075Z,0.90
2018-01-17T07:57:36.382Z,0.90
2018-01-17T08:02:19.710Z,0.90
2018-01-17T08:07:03.026Z,1.00
2018-01-17T08:11:47.101Z,0.90
2018-01-17T08:16:30.446Z,0.80
2018-01-17T08:21:13.783Z,1.00
2018-01-17T08:25:57.117Z,0.90
2018-01-17T08:30:40.442Z,1.00
2018-01-17T08:35:23.763Z,1.20
2018-01-17T08:40:07.099Z,1.40
2018-01-17T08:44:50.386Z,1.50
2018-01-17T08:49:33.722Z,1.40
2018-01-17T08:54:17.068Z,1.40
2018-01-17T08:59:00.401Z,1.40
2018-01-17T09:03:43.752Z,1.40
2018-01-17T09:08:27.058Z,1.30
2018-01-17T09:13:10.390Z,1.10
2018-01-17T09:17:53.741Z,1.10
2018-01-17T09:22:37.071Z,1.10
2018-01-17T09:27:21.144Z,1.10
2018-01-17T09:32:05.324Z,1.20
2018-01-17T09:36:48.617Z,1.10
2018-01-17T09:41:31.947Z,1.30
2018-01-17T09:46:15.271Z,1.50
2018-01-17T09:50:58.670Z,1.70
2018-01-17T09:55:42.780Z,1.70
2018-01-17T10:00:26.136Z,1.70
2018-01-17T10:05:09.435Z,1.70
2018-01-17T10:09:52.753Z,1.70
2018-01-17T10:14:36.098Z,1.80
2018-01-17T10:19:20.222Z,1.80
2018-01-17T10:24:03.523Z,1.80
2018-01-17T10:28:46.829Z,1.80
2018-01-17T10:33:30.178Z,2.00
2018-01-17T10:38:14.262Z,1.80
2018-01-17T10:42:57.579Z,1.80
2018-01-17T10:47:40.879Z,1.80
2018-01-17T10:52:24.958Z,2.10
2018-01-17T10:57:09.042Z,2.20
2018-01-17T11:01:52.359Z,2.20
2018-01-17T11:06:35.676Z,2.40
2018-01-17T11:11:18.998Z,2.60
2018-01-17T11:16:02.321Z,2.60
2018-01-17T11:20:45.625Z,2.60
2018-01-17T11:25:28.930Z,2.60
2018-01-17T11:30:13.007Z,2.30
2018-01-17T11:34:56.347Z,2.30
2018-01-17T11:39:40.442Z,2.40
2018-01-17T11:44:23.787Z,2.40
2018-01-17T11:49:07.131Z,2.30
2018-01-17T11:53:50.450Z,2.10
2018-01-17T11:58:33.793Z,1.90
2018-01-17T12:03:17.126Z,1.90
2018-01-17T12:08:00.389Z,1.90
2018-01-17T12:12:43.704Z,1.80
2018-01-17T12:17:27.023Z,1.80
2018-01-17T12:22:11.129Z,1.80
2018-01-17T12:26:54.410Z,1.80
2018-01-17T12:31:38.501Z,2.10
2018-01-17T12:36:21.892Z,2.10
2018-01-17T12:41:05.189Z,2.20
2018-01-17T12:45:48.544Z,2.20
2018-01-17T12:50:31.866Z,2.20
2018-01-17T12:55:15.150Z,2.10
2018-01-17T12:59:58.494Z,2.00
2018-01-17T13:04:42.609Z,1.90
2018-01-17T13:09:25.918Z,1.80
2018-01-17T13:14:09.239Z,1.90
2018-01-17T13:18:52.514Z,1.90
2018-01-17T13:23:35.848Z,1.90
2018-01-17T13:28:19.207Z,1.80
2018-01-17T13:33:02.530Z,1.80
2018-01-17T13:37:45.881Z,1.70
2018-01-17T13:42:29.161Z,1.60
2018-01-17T13:47:12.498Z,1.60
2018-01-17T13:51:55.790Z,1.70
2018-01-17T13:56:39.205Z,1.80
2018-01-17T14:01:22.535Z,1.80
2018-01-17T14:06:05.900Z,1.80
2018-01-17T14:10:49.992Z,2.00
2018-01-17T14:15:33.296Z,2.00
2018-01-17T14:20:17.379Z,2.00
2018-01-17T14:25:00.674Z,2.00
2018-01-17T14:29:43.986Z,1.90
2018-01-17T14:34:27.323Z,1.80
2018-01-17T14:39:10.590Z,1.40
2018-01-17T14:43:54.700Z,0.80
2018-01-17T14:48:38.074Z,0.80
2018-01-17T14:53:21.439Z,0.80
2018-01-17T14:58:05.506Z,0.70
2018-01-17T15:02:49.593Z,0.60
2018-01-17T15:07:33.265Z,0.60
2018-01-17T15:12:16.588Z,0.80
2018-01-17T15:16:59.978Z,0.90
2018-01-17T15:21:44.072Z,0.80
2018-01-17T15:26:27.464Z,0.80
2018-01-17T15:31:10.776Z,0.70
2018-01-17T15:35:54.086Z,0.50
2018-01-17T15:40:37.421Z,0.50
2018-01-17T15:45:20.737Z,0.60
2018-01-17T15:50:04.925Z,0.50
2018-01-17T15:54:48.230Z,0.50
2018-01-17T15:59:31.550Z,0.50
2018-01-17T16:04:14.899Z,0.50
2018-01-17T16:08:58.228Z,0.40
2018-01-17T16:13:41.547Z,0.50
2018-01-17T16:18:24.822Z,0.60
2018-01-17T16:23:08.143Z,0.50
2018-01-17T16:27:51.479Z,0.50
2018-01-17T16:32:34.850Z,0.60
2018-01-17T16:37:18.155Z,0.60
2018-01-17T16:42:01.471Z,0.70
2018-01-17T16:46:44.815Z,0.70
2018-01-17T16:51:28.127Z,0.80
2018-01-17T16:56:11.441Z,0.90
2018-01-17T17:00:54.761Z,0.90
2018-01-17T17:05:38.078Z,0.90
2018-01-17T17:10:21.419Z,0.90
2018-01-17T17:15:04.734Z,0.90
2018-01-17T17:19:48.129Z,0.90
2018-01-17T17:24:31.544Z,0.90
2018-01-17T17:29:14.886Z,1.00
2018-01-17T17:33:58.198Z,0.90
2018-01-17T17:38:41.551Z,0.90
2018-01-17T17:43:24.858Z,1.00
2018-01-17T17:48:08.200Z,1.10
2018-01-17T17:52:51.582Z,1.10
2018-01-17T17:57:34.928Z,1.10
2018-01-17T18:02:18.281Z,0.90
2018-01-17T18:07:01.579Z,0.70
2018-01-17T18:11:44.930Z,0.50
2018-01-17T18:16:28.277Z,0.40
2018-01-17T18:21:11.616Z,0.30
2018-01-17T18:25:54.923Z,0.30
2018-01-17T18:30:39.026Z,0.20
2018-01-17T18:35:22.382Z,0.20
2018-01-17T18:40:05.668Z,0.20
2018-01-17T18:44:49.747Z,0.20
2018-01-17T18:49:33.118Z,0.20
2018-01-17T18:54:16.444Z,0.40
2018-01-17T18:58:59.757Z,0.30
2018-01-17T19:03:43.077Z,0.40
2018-01-17T19:08:26.394Z,0.20
2018-01-17T19:13:09.779Z,0.30
2018-01-17T19:17:53.961Z,0.30
2018-01-17T19:22:37.325Z,0.30
2018-01-17T19:27:20.649Z,0.40
2018-01-17T19:32:04.204Z,0.50
2018-01-17T19:36:47.509Z,0.50
2018-01-17T19:41:30.831Z,0.60
2018-01-17T19:46:14.958Z,0.70
2018-01-17T19:50:58.288Z,0.70
2018-01-17T19:55:41.588Z,0.70
2018-01-17T20:00:24.897Z,0.80
2018-01-17T20:05:09.075Z,0.80
2018-01-17T20:09:52.435Z,0.90
2018-01-17T20:14:35.806Z,0.90
2018-01-17T20:19:19.373Z,0.90
2018-01-17T20:24:02.630Z,0.70
2018-01-17T20:28:46.720Z,0.70
2018-01-17T20:33:30.071Z,0.70
2018-01-17T20:38:13.360Z,0.70
2018-01-17T20:42:57.482Z,0.70
2018-01-17T20:47:40.821Z,0.70
2018-01-17T20:52:24.113Z,0.70
2018-01-17T20:57:08.184Z,0.80
2018-01-17T21:01:52.333Z,0.80
2018-01-17T21:06:35.716Z,0.80
2018-01-17T21:11:19.109Z,0.80
2018-01-17T21:16:03.180Z,0.80
2018-01-17T21:20:46.494Z,0.80
2018-01-17T21:25:30.547Z,0.70
2018-01-17T21:30:13.881Z,0.70
2018-01-17T21:34:57.218Z,0.70
2018-01-17T21:39:40.542Z,0.70
2018-01-17T21:44:29.544Z,0.70
2018-01-17T21:49:12.893Z,0.80
2018-01-17T21:53:56.930Z,0.70
2018-01-17T21:58:40.273Z,0.70
2018-01-17T22:03:23.624Z,0.70
2018-01-17T22:08:06.954Z,0.60
2018-01-17T22:12:50.444Z,0.60
2018-01-17T22:17:33.830Z,0.60
2018-01-17T22:22:17.150Z,0.70
2018-01-17T22:27:00.480Z,0.80
2018-01-17T22:31:43.813Z,0.80
2018-01-17T22:36:27.111Z,0.90
2018-01-17T22:41:11.190Z,0.90
2018-01-17T22:45:54.504Z,0.90
2018-01-17T22:50:37.797Z,1.00
2018-01-17T22:55:21.114Z,1.00
2018-01-17T23:00:04.429Z,1.10
2018-01-17T23:04:48.502Z,1.10
2018-01-17T23:09:31.827Z,1.10
2018-01-17T23:14:15.922Z,1.10
2018-01-17T23:18:59.241Z,1.10
2018-01-17T23:23:43.323Z,1.10
2018-01-17T23:28:26.618Z,1.10
2018-01-17T23:33:10.686Z,1.10
2018-01-17T23:37:54.012Z,1.10
2018-01-17T23:42:37.334Z,1.10
2018-01-17T23:47:20.678Z,1.10
2018-01-17T23:52:03.986Z,1.10
2018-01-17T23:56:47.301Z,1.10
